Time;durP1;ratioP1;P1;durP2;ratioP2;P2;SDS_P1;SDS_P2;PMS_P1;PMS_P2;Temp;Humidity;BMP_temperature;BMP_pressure;BME280_temperature;BME280_humidity;BME280_pressure;Samples;Min_cycle;Max_cycle;Signal;HPM_P1;HPM_P2
2022/04/24 00:00:23;;;;;;;;;;;;;;;8.38;82.02;94951.72;30001;983;1881;-58
2022/04/24 00:00:54;;;;;;;;;;;;;;;8.38;81.74;94949.81;30001;982;1859;-64
2022/04/24 00:01:25;;;;;;;;;;;;;;;8.39;81.87;94958.72;30001;985;1876;-58
2022/04/24 00:01:57;;;;;;;;;;;;;;;8.40;82.00;94952.19;30001;982;1881;-58
2022/04/24 00:02:29;;;;;;;;;;;;;;;8.39;82.01;94953.31;30001;982;1881;-63
2022/04/24 00:03:01;;;;;;;;;;;;;;;8.40;81.88;94944.09;30001;982;1881;-59
2022/04/24 00:03:32;;;;;;;;;;;;;;;8.40;82.06;94952.19;30001;983;1858;-59
2022/04/24 00:04:03;;;;;;;;;;;;;;;8.42;81.93;94949.19;30001;961;1889;-64
2022/04/24 00:04:35;;;;;;;;;;;;;;;8.40;82.34;94953.00;30001;983;1747;-58
2022/04/24 00:05:06;;;;;;;;;;;;;;;8.41;82.31;94953.78;30001;983;1876;-64
2022/04/24 00:05:37;;;;;;;;;;;;;;;8.39;82.65;94950.63;30001;983;1858;-58
2022/04/24 00:06:09;;;;;;;;;;;;;;;8.37;82.32;94948.25;30001;983;1854;-59
2022/04/24 00:06:41;;;;;;;;;;;;;;;8.38;82.46;94954.44;30001;983;1880;-60
2022/04/24 00:07:12;;;;;;;;;;;;;;;8.38;82.41;94951.72;30001;983;1880;-58
2022/04/24 00:07:45;;;;;;;;;;;;;;;8.38;82.54;94949.03;30001;983;1881;-59
2022/04/24 00:08:16;;;;;;;;;;;;;;;8.36;82.77;94952.06;30001;983;1881;-58
2022/04/24 00:08:51;;;;;;;;;;;;;;;8.35;82.63;94952.38;30001;982;1881;-60
2022/04/24 00:09:22;;;;;;;;;;;;;;;8.34;82.47;94948.09;30001;982;1881;-58
2022/04/24 00:09:54;;;;;;;;;;;;;;;8.33;82.52;94951.91;30001;982;1859;-59
2022/04/24 00:10:26;;;;;;;;;;;;;;;8.33;82.47;94955.41;30001;982;1877;-62
2022/04/24 00:10:58;;;;;;;;;;;;;;;8.35;82.55;94955.09;30001;983;1858;-58
2022/04/24 00:11:30;;;;;;;;;;;;;;;8.34;82.68;94948.88;30001;983;1876;-58
2022/04/24 00:12:04;;;;;;;;;;;;;;;8.35;82.36;94957.78;30001;983;1880;-59
2022/04/24 00:12:37;;;;;;;;;;;;;;;8.34;82.38;94956.19;30001;983;1880;-58
2022/04/24 00:13:11;;;;;;;;;;;;;;;8.34;82.44;94948.09;30001;983;1880;-59
2022/04/24 00:13:43;;;;;;;;;;;;;;;8.32;82.48;94951.12;30001;983;1858;-63
2022/04/24 00:14:17;;;;;;;;;;;;;;;8.31;82.38;94943.34;30001;983;1876;-58
2022/04/24 00:14:49;;;;;;;;;;;;;;;8.30;82.42;94957.97;30001;983;1879;-58
2022/04/24 00:15:20;;;;;;;;;;;;;;;8.30;82.85;94947.16;30001;983;1881;-62
2022/04/24 00:15:51;;;;;;;;;;;;;;;8.30;82.70;94957.97;30001;983;1881;-63
2022/04/24 00:16:22;;;;;;;;;;;;;;;8.29;83.16;94954.47;30001;982;1881;-58
2022/04/24 00:16:53;;;;;;;;;;;;;;;8.29;83.09;94942.88;30001;982;1881;-58
2022/04/24 00:17:24;;;;;;;;;;;;;;;8.29;82.80;94950.97;30001;982;1881;-63
2022/04/24 00:17:55;;;;;;;;;;;;;;;8.28;82.75;94943.97;30001;982;1859;-59
2022/04/24 00:18:26;;;;;;;;;;;;;;;8.28;82.80;94946.69;30001;983;1876;-58
2022/04/24 00:18:57;;;;;;;;;;;;;;;8.26;83.04;94947.00;30001;983;1880;-59
2022/04/24 00:19:28;;;;;;;;;;;;;;;8.25;82.78;94947.34;30001;983;1880;-64
2022/04/24 00:19:59;;;;;;;;;;;;;;;8.25;82.78;94937.31;30001;983;1841;-59
2022/04/24 00:20:30;;;;;;;;;;;;;;;8.26;82.49;94938.13;30001;983;1880;-63
2022/04/24 00:21:01;;;;;;;;;;;;;;;8.25;82.59;94931.91;30001;983;1880;-63
2022/04/24 00:21:32;;;;;;;;;;;;;;;8.25;82.34;94939.22;30001;983;1880;-64
2022/04/24 00:22:06;;;;;;;;;;;;;;;8.27;82.53;94937.00;30001;983;1881;-60
2022/04/24 00:22:40;;;;;;;;;;;;;;;8.26;82.58;94938.13;30001;983;1858;-60
2022/04/24 00:23:11;;;;;;;;;;;;;;;8.24;82.87;94927.63;30001;983;1854;-59
2022/04/24 00:23:43;;;;;;;;;;;;;;;8.25;82.69;94939.22;30001;982;1859;-58
2022/04/24 00:24:17;;;;;;;;;;;;;;;8.24;82.58;94938.44;30001;982;1876;-59
2022/04/24 00:24:47;;;;;;;;;;;;;;;8.25;82.42;94936.53;30001;982;1790;-59
2022/04/24 00:25:18;;;;;;;;;;;;;;;8.26;82.45;94932.72;30001;982;1859;-59
2022/04/24 00:25:51;;;;;;;;;;;;;;;8.27;82.56;94934.28;30001;982;1877;-64
2022/04/24 00:26:22;;;;;;;;;;;;;;;8.23;82.91;94933.34;30001;983;1880;-59
2022/04/24 00:26:54;;;;;;;;;;;;;;;8.22;82.92;94937.97;30001;983;1880;-63
2022/04/24 00:27:26;;;;;;;;;;;;;;;8.21;82.81;94927.47;30001;983;1880;-59
2022/04/24 00:27:57;;;;;;;;;;;;;;;8.23;82.68;94936.84;30001;983;1880;-63
2022/04/24 00:28:28;;;;;;;;;;;;;;;8.24;82.70;94933.03;30001;983;1880;-59
2022/04/24 00:28:59;;;;;;;;;;;;;;;8.26;82.29;94930.00;30001;983;1880;-64
2022/04/24 00:29:30;;;;;;;;;;;;;;;8.26;82.50;94933.50;30001;983;1881;-64
2022/04/24 00:30:01;;;;;;;;;;;;;;;8.26;82.42;94932.72;30001;983;1881;-59
2022/04/24 00:30:32;;;;;;;;;;;;;;;8.26;82.32;94930.00;30001;982;1859;-64
2022/04/24 00:31:03;;;;;;;;;;;;;;;8.26;82.42;94928.09;30001;982;1876;-59
2022/04/24 00:31:35;;;;;;;;;;;;;;;8.25;82.39;94923.03;30001;982;1859;-60
2022/04/24 00:32:06;;;;;;;;;;;;;;;8.24;83.17;94921.44;30001;982;1876;-59
2022/04/24 00:32:40;;;;;;;;;;;;;;;8.21;83.70;94922.09;30001;982;1881;-59
2022/04/24 00:33:11;;;;;;;;;;;;;;;8.19;83.33;94918.91;30001;982;1881;-58
2022/04/24 00:33:42;;;;;;;;;;;;;;;8.18;83.23;94920.81;30001;983;1858;-64
2022/04/24 00:34:14;;;;;;;;;;;;;;;8.19;83.05;94919.69;30001;983;1876;-64
2022/04/24 00:34:44;;;;;;;;;;;;;;;8.19;83.27;94924.31;30001;983;1880;-63
2022/04/24 00:35:15;;;;;;;;;;;;;;;8.19;83.21;94919.69;30001;983;1880;-64
2022/04/24 00:35:50;;;;;;;;;;;;;;;8.20;83.12;94920.50;30001;983;1858;-58
2022/04/24 00:36:21;;;;;;;;;;;;;;;8.20;83.23;94925.91;30001;971;1821;-65
2022/04/24 00:36:52;;;;;;;;;;;;;;;8.20;83.08;94920.50;30001;983;1880;-59
2022/04/24 00:37:26;;;;;;;;;;;;;;;8.19;83.22;94925.09;30001;983;1881;-60
2022/04/24 00:37:59;;;;;;;;;;;;;;;8.20;83.13;94921.28;30001;982;1881;-63
2022/04/24 00:38:31;;;;;;;;;;;;;;;8.21;83.01;94924.78;30001;971;1899;-64
2022/04/24 00:39:02;;;;;;;;;;;;;;;8.21;82.98;94922.09;30001;982;1881;-58
2022/04/24 00:39:33;;;;;;;;;;;;;;;8.22;82.81;94920.97;30001;982;1881;-64
2022/04/24 00:40:04;;;;;;;;;;;;;;;8.23;82.82;94926.03;30001;982;1881;-64
2022/04/24 00:40:35;;;;;;;;;;;;;;;8.23;82.67;94919.84;30001;982;1881;-63
2022/04/24 00:41:06;;;;;;;;;;;;;;;8.22;82.58;94918.25;30001;983;1858;-64
2022/04/24 00:41:44;;;;;;;;;;;;;;;8.22;82.84;94912.84;30001;983;1876;-58
2022/04/24 00:42:16;;;;;;;;;;;;;;;8.19;82.89;94914.31;30001;983;1880;-64
2022/04/24 00:42:46;;;;;;;;;;;;;;;8.19;82.99;94916.22;30001;983;1880;-64
2022/04/24 00:43:18;;;;;;;;;;;;;;;8.18;83.86;94918.13;30001;983;1880;-58
2022/04/24 00:43:53;;;;;;;;;;;;;;;8.15;84.42;94917.97;30001;983;1880;-58
2022/04/24 00:44:27;;;;;;;;;;;;;;;8.13;84.31;94914.81;30001;983;1880;-58
2022/04/24 00:44:58;;;;;;;;;;;;;;;8.12;83.98;94913.22;30001;983;1881;-58
2022/04/24 00:45:29;;;;;;;;;;;;;;;8.11;84.06;94911.63;30001;982;1752;-63
2022/04/24 00:46:09;;;;;;;;;;;;;;;8.11;84.11;94917.03;30001;982;1876;-59
2022/04/24 00:46:41;;;;;;;;;;;;;;;8.12;83.82;94902.41;30001;982;1859;-58
2022/04/24 00:47:22;;;;;;;;;;;;;;;8.10;83.86;94908.13;30001;982;1876;-58
2022/04/24 00:47:53;;;;;;;;;;;;;;;8.12;83.60;94908.59;30001;982;1881;-58
2022/04/24 00:48:26;;;;;;;;;;;;;;;8.14;83.49;94909.06;30001;982;1881;-59
2022/04/24 00:48:57;;;;;;;;;;;;;;;8.14;83.46;94906.38;30001;983;1880;-58
2022/04/24 00:49:29;;;;;;;;;;;;;;;8.15;83.20;94907.97;30001;983;1880;-64
2022/04/24 00:50:00;;;;;;;;;;;;;;;8.16;83.37;94911.47;30001;983;1880;-58
2022/04/24 00:50:33;;;;;;;;;;;;;;;8.17;83.08;94907.63;30001;983;1880;-63
2022/04/24 00:51:04;;;;;;;;;;;;;;;8.17;83.08;94907.63;30001;983;1880;-63
2022/04/24 00:51:37;;;;;;;;;;;;;;;8.17;83.00;94907.63;30001;983;1880;-64
2022/04/24 00:52:09;;;;;;;;;;;;;;;8.18;82.96;94906.53;30001;983;1859;-63
2022/04/24 00:52:40;;;;;;;;;;;;;;;8.17;82.82;94904.94;30001;983;1876;-58
2022/04/24 00:53:11;;;;;;;;;;;;;;;8.17;83.54;94899.53;30001;982;1881;-63
2022/04/24 00:53:42;;;;;;;;;;;;;;;8.17;83.72;94904.94;30001;971;1902;-58
2022/04/24 00:54:13;;;;;;;;;;;;;;;8.16;83.93;94906.06;30001;982;1881;-63
2022/04/24 00:54:44;;;;;;;;;;;;;;;8.15;83.57;94901.75;30001;982;1881;-63
2022/04/24 00:55:17;;;;;;;;;;;;;;;8.13;83.67;94904.78;30001;982;1881;-64
2022/04/24 00:55:48;;;;;;;;;;;;;;;8.14;83.50;94900.19;30001;982;1881;-59
2022/04/24 00:56:19;;;;;;;;;;;;;;;8.14;83.63;94905.59;30001;983;1880;-63
2022/04/24 00:56:50;;;;;;;;;;;;;;;8.13;83.46;94902.09;30001;983;1880;-64
2022/04/24 00:57:22;;;;;;;;;;;;;;;8.15;83.61;94896.38;30001;983;1858;-60
2022/04/24 00:57:53;;;;;;;;;;;;;;;8.15;83.41;94909.87;30001;983;1876;-59
2022/04/24 00:58:24;;;;;;;;;;;;;;;8.15;83.70;94904.47;30001;983;1880;-59
2022/04/24 00:58:58;;;;;;;;;;;;;;;8.15;83.49;94899.84;30001;983;1880;-59
2022/04/24 00:59:29;;;;;;;;;;;;;;;8.17;83.82;94904.94;30001;983;1880;-59
2022/04/24 01:00:00;;;;;;;;;;;;;;;8.16;83.46;94901.44;30001;983;1881;-59
2022/04/24 01:00:30;;;;;;;;;;;;;;;8.17;83.87;94910.34;30001;982;1881;-59
2022/04/24 01:01:01;;;;;;;;;;;;;;;8.17;83.54;94899.53;30001;982;1881;-59
2022/04/24 01:01:33;;;;;;;;;;;;;;;8.19;83.54;94897.31;30001;982;1881;-65
2022/04/24 01:02:07;;;;;;;;;;;;;;;8.21;83.21;94900.47;30001;982;1881;-63
2022/04/24 01:02:42;;;;;;;;;;;;;;;8.21;83.35;94900.47;30001;982;1859;-58
2022/04/24 01:03:13;;;;;;;;;;;;;;;8.24;83.16;94899.81;30001;983;1876;-59
2022/04/24 01:03:44;;;;;;;;;;;;;;;8.25;83.08;94901.41;30001;983;1880;-59
2022/04/24 01:04:16;;;;;;;;;;;;;;;8.26;82.82;94903.78;30001;983;1880;-58
2022/04/24 01:04:47;;;;;;;;;;;;;;;8.28;82.93;94904.25;30001;983;1880;-64
2022/04/24 01:05:18;;;;;;;;;;;;;;;8.29;82.67;94897.72;30001;983;1880;-64
2022/04/24 01:05:49;;;;;;;;;;;;;;;8.30;82.43;94891.22;30001;983;1880;-64
2022/04/24 01:06:20;;;;;;;;;;;;;;;8.32;82.38;94890.84;30001;983;1881;-63
2022/04/24 01:06:50;;;;;;;;;;;;;;;8.32;82.57;94896.25;30001;983;1880;-64
2022/04/24 01:07:21;;;;;;;;;;;;;;;8.32;82.46;94885.44;30001;983;1881;-60
2022/04/24 01:07:52;;;;;;;;;;;;;;;8.33;82.47;94885.16;30001;983;1859;-65
2022/04/24 01:08:23;;;;;;;;;;;;;;;8.35;82.08;94885.63;30001;982;1876;-64
2022/04/24 01:08:54;;;;;;;;;;;;;;;8.37;81.93;94888.00;30001;982;1881;-58
2022/04/24 01:09:34;;;;;;;;;;;;;;;8.38;82.02;94884.16;30001;982;1881;-65
2022/04/24 01:10:05;;;;;;;;;;;;;;;8.39;81.72;94880.34;30001;982;1881;-58
2022/04/24 01:10:40;;;;;;;;;;;;;;;8.42;81.46;94887.00;30001;983;1880;-59
2022/04/24 01:11:10;;;;;;;;;;;;;;;8.43;81.38;94880.50;30001;983;1880;-63
2022/04/24 01:11:43;;;;;;;;;;;;;;;8.43;81.57;94885.91;30001;983;1880;-64
2022/04/24 01:12:16;;;;;;;;;;;;;;;8.42;81.75;94890.50;30001;983;1880;-63
2022/04/24 01:12:47;;;;;;;;;;;;;;;8.39;82.04;94880.34;30001;983;1858;-64
2022/04/24 01:13:17;;;;;;;;;;;;;;;8.36;82.06;94884.50;30001;983;1876;-63
2022/04/24 01:13:52;;;;;;;;;;;;;;;8.32;82.49;94888.16;30001;983;1880;-63
2022/04/24 01:14:25;;;;;;;;;;;;;;;8.32;82.86;94896.25;30001;983;1880;-64
2022/04/24 01:14:56;;;;;;;;;;;;;;;8.30;83.36;94893.91;30001;983;1881;-63
2022/04/24 01:15:26;;;;;;;;;;;;;;;8.30;83.11;94895.81;30001;983;1881;-64
2022/04/24 01:15:57;;;;;;;;;;;;;;;8.28;82.88;94895.34;30001;982;1881;-64
2022/04/24 01:16:28;;;;;;;;;;;;;;;8.28;83.01;94900.75;30001;982;1881;-58
2022/04/24 01:17:00;;;;;;;;;;;;;;;8.28;83.00;94895.34;30001;982;1881;-60
2022/04/24 01:17:31;;;;;;;;;;;;;;;8.29;82.91;94896.94;30001;982;1881;-63
2022/04/24 01:18:05;;;;;;;;;;;;;;;8.29;83.05;94902.34;30001;983;1858;-58
2022/04/24 01:18:36;;;;;;;;;;;;;;;8.29;82.83;94903.13;30001;983;1876;-58
2022/04/24 01:19:07;;;;;;;;;;;;;;;8.31;82.73;94900.09;30001;983;1880;-65
2022/04/24 01:19:38;;;;;;;;;;;;;;;8.31;82.80;94905.50;30001;983;1880;-59
2022/04/24 01:20:10;;;;;;;;;;;;;;;8.32;82.73;94907.06;30001;983;1880;-64
2022/04/24 01:20:41;;;;;;;;;;;;;;;8.32;82.69;94902.47;30001;964;1907;-59
2022/04/24 01:21:12;;;;;;;;;;;;;;;8.34;82.54;94902.16;30001;983;1880;-58
2022/04/24 01:21:45;;;;;;;;;;;;;;;8.34;82.84;94910.25;30001;966;1906;-64
2022/04/24 01:22:17;;;;;;;;;;;;;;;8.34;82.63;94905.66;30001;983;1881;-58
2022/04/24 01:22:48;;;;;;;;;;;;;;;8.36;82.39;94908.03;30001;983;1881;-63
2022/04/24 01:23:19;;;;;;;;;;;;;;;8.37;82.48;94909.63;30001;982;1859;-64
2022/04/24 01:23:50;;;;;;;;;;;;;;;8.38;82.38;94911.19;30001;982;1876;-59
2022/04/24 01:24:22;;;;;;;;;;;;;;;8.37;82.36;94904.22;30001;982;1859;-64
2022/04/24 01:24:52;;;;;;;;;;;;;;;8.38;82.39;94905.78;30001;982;1877;-59
2022/04/24 01:25:23;;;;;;;;;;;;;;;8.35;82.84;94903.75;30001;982;1881;-64
2022/04/24 01:25:54;;;;;;;;;;;;;;;8.35;82.74;94895.63;30001;983;1858;-64
2022/04/24 01:26:25;;;;;;;;;;;;;;;8.35;82.58;94901.03;30001;983;1876;-64
2022/04/24 01:26:56;;;;;;;;;;;;;;;8.35;82.49;94901.03;30001;983;1880;-63
2022/04/24 01:27:28;;;;;;;;;;;;;;;8.35;82.37;94898.34;30001;983;1880;-63
2022/04/24 01:27:58;;;;;;;;;;;;;;;8.34;82.79;94899.44;30001;983;1880;-59
2022/04/24 01:28:29;;;;;;;;;;;;;;;8.34;82.53;94899.44;30001;983;1880;-59
2022/04/24 01:29:01;;;;;;;;;;;;;;;8.34;82.62;94899.44;30001;983;1881;-64
2022/04/24 01:29:35;;;;;;;;;;;;;;;8.32;83.11;94902.47;30001;983;1859;-59
2022/04/24 01:30:10;;;;;;;;;;;;;;;8.32;82.87;94894.37;30001;982;1854;-64
2022/04/24 01:30:41;;;;;;;;;;;;;;;8.30;83.04;94902.00;30001;982;1881;-64
2022/04/24 01:31:11;;;;;;;;;;;;;;;8.31;82.96;94894.69;30001;982;1881;-65
2022/04/24 01:31:48;;;;;;;;;;;;;;;8.31;82.55;94900.91;30001;965;1898;-63
2022/04/24 01:32:19;;;;;;;;;;;;;;;8.34;82.76;94904.84;30001;982;1881;-64
2022/04/24 01:32:50;;;;;;;;;;;;;;;8.34;82.56;94904.84;30001;982;1881;-64
2022/04/24 01:33:21;;;;;;;;;;;;;;;8.35;82.64;94906.44;30001;983;1880;-63
2022/04/24 01:33:51;;;;;;;;;;;;;;;8.34;82.75;94904.84;30001;983;1880;-64
2022/04/24 01:34:22;;;;;;;;;;;;;;;8.34;82.91;94907.56;30001;983;1880;-64
2022/04/24 01:34:53;;;;;;;;;;;;;;;8.35;82.45;94909.16;30001;983;1880;-64
2022/04/24 01:35:24;;;;;;;;;;;;;;;8.35;82.70;94907.22;30001;983;1858;-59
2022/04/24 01:35:55;;;;;;;;;;;;;;;8.36;82.53;94914.22;30001;983;1876;-63
2022/04/24 01:36:26;;;;;;;;;;;;;;;8.35;82.56;94911.84;30001;983;1880;-64
2022/04/24 01:36:57;;;;;;;;;;;;;;;8.35;82.53;94912.63;30001;983;1881;-64
2022/04/24 01:37:28;;;;;;;;;;;;;;;8.36;82.53;94916.13;30001;982;1881;-59
2022/04/24 01:37:59;;;;;;;;;;;;;;;8.35;82.50;94912.63;30001;982;1881;-58
2022/04/24 01:38:31;;;;;;;;;;;;;;;8.36;82.65;94911.53;30001;982;1881;-64
2022/04/24 01:39:03;;;;;;;;;;;;;;;8.37;82.51;94915.03;30001;982;1881;-58
2022/04/24 01:39:33;;;;;;;;;;;;;;;8.37;82.43;94909.63;30001;982;1881;-64
2022/04/24 01:40:05;;;;;;;;;;;;;;;8.38;82.67;94911.19;30001;982;1859;-58
2022/04/24 01:40:36;;;;;;;;;;;;;;;8.39;82.47;94907.38;30001;982;1877;-63
2022/04/24 01:41:07;;;;;;;;;;;;;;;8.39;82.56;94913.56;30001;983;1880;-63
2022/04/24 01:41:38;;;;;;;;;;;;;;;8.39;82.58;94907.38;30001;972;1891;-59
2022/04/24 01:42:09;;;;;;;;;;;;;;;8.39;82.46;94907.38;30001;983;1858;-58
2022/04/24 01:42:40;;;;;;;;;;;;;;;8.39;82.43;94908.16;30001;983;1876;-64
2022/04/24 01:43:11;;;;;;;;;;;;;;;8.40;82.29;94903.56;30001;983;1880;-64
2022/04/24 01:43:42;;;;;;;;;;;;;;;8.40;82.53;94914.38;30001;983;1880;-58
2022/04/24 01:44:13;;;;;;;;;;;;;;;8.37;83.00;94912.31;30001;987;1877;-65
2022/04/24 01:44:47;;;;;;;;;;;;;;;8.35;83.41;94912.63;30001;984;1881;-63
2022/04/24 01:45:18;;;;;;;;;;;;;;;8.35;83.35;94917.25;30001;982;1881;-63
2022/04/24 01:45:50;;;;;;;;;;;;;;;8.34;83.54;94907.56;30001;982;1859;-61
2022/04/24 01:46:20;;;;;;;;;;;;;;;8.35;83.01;94911.84;30001;982;1876;-64
2022/04/24 01:46:52;;;;;;;;;;;;;;;8.34;83.03;94915.66;30001;982;1881;-64
2022/04/24 01:47:23;;;;;;;;;;;;;;;8.35;83.29;94911.84;30001;982;1881;-59
2022/04/24 01:47:53;;;;;;;;;;;;;;;8.34;83.44;94910.25;30001;982;1881;-58
2022/04/24 01:48:28;;;;;;;;;;;;;;;8.33;83.30;94909.47;30001;983;1828;-58
2022/04/24 01:48:59;;;;;;;;;;;;;;;8.33;83.19;94904.06;30001;973;1890;-65
2022/04/24 01:49:29;;;;;;;;;;;;;;;8.34;83.18;94904.84;30001;983;1880;-59
2022/04/24 01:50:00;;;;;;;;;;;;;;;8.35;83.04;94917.25;30001;983;1858;-64
2022/04/24 01:50:34;;;;;;;;;;;;;;;8.36;82.85;94918.84;30001;983;1876;-59
2022/04/24 01:51:06;;;;;;;;;;;;;;;8.37;82.69;94921.22;30001;983;1880;-63
2022/04/24 01:51:39;;;;;;;;;;;;;;;8.37;82.47;94915.81;30001;983;1881;-64
2022/04/24 01:52:10;;;;;;;;;;;;;;;8.40;82.66;94919.78;30001;983;1859;-64
2022/04/24 01:52:40;;;;;;;;;;;;;;;8.39;82.58;94923.59;30001;982;1876;-65
2022/04/24 01:53:11;;;;;;;;;;;;;;;8.39;82.80;94929.00;30001;982;1881;-64
2022/04/24 01:53:43;;;;;;;;;;;;;;;8.40;82.59;94922.47;30001;982;1881;-65
2022/04/24 01:54:14;;;;;;;;;;;;;;;8.40;82.81;94931.38;30001;982;1881;-65
2022/04/24 01:54:44;;;;;;;;;;;;;;;8.40;82.81;94930.59;30001;982;1881;-64
2022/04/24 01:55:15;;;;;;;;;;;;;;;8.40;82.99;94938.69;30001;982;1881;-58
2022/04/24 01:55:49;;;;;;;;;;;;;;;8.40;83.15;94941.38;30001;983;1858;-59
2022/04/24 01:56:20;;;;;;;;;;;;;;;8.40;82.92;94949.50;30001;983;1876;-58
2022/04/24 01:56:51;;;;;;;;;;;;;;;8.39;83.34;94951.41;30001;983;1880;-59
2022/04/24 01:57:22;;;;;;;;;;;;;;;8.39;83.59;94956.03;30001;983;1880;-59
2022/04/24 01:57:53;;;;;;;;;;;;;;;8.39;83.40;94953.31;30001;983;1880;-64
2022/04/24 01:58:24;;;;;;;;;;;;;;;8.39;83.50;94958.72;30001;983;1880;-60
2022/04/24 01:58:55;;;;;;;;;;;;;;;8.39;83.22;94959.53;30001;983;1880;-63
2022/04/24 01:59:26;;;;;;;;;;;;;;;8.39;83.21;94966.84;30001;983;1881;-58
2022/04/24 01:59:58;;;;;;;;;;;;;;;8.39;83.00;94961.44;30001;982;1881;-63
2022/04/24 02:00:32;;;;;;;;;;;;;;;8.40;83.11;94971.13;30001;982;1881;-65
2022/04/24 02:01:03;;;;;;;;;;;;;;;8.41;83.12;94964.59;30001;982;1859;-58
2022/04/24 02:01:36;;;;;;;;;;;;;;;8.41;83.04;94970.00;30001;982;1876;-64
2022/04/24 02:02:07;;;;;;;;;;;;;;;8.42;82.95;94970.78;30001;982;1881;-63
2022/04/24 02:02:38;;;;;;;;;;;;;;;8.42;83.07;94970.78;30001;983;1880;-64
2022/04/24 02:03:09;;;;;;;;;;;;;;;8.43;82.64;94966.97;30001;983;1880;-59
2022/04/24 02:03:40;;;;;;;;;;;;;;;8.42;82.93;94968.88;30001;983;1880;-59
2022/04/24 02:04:11;;;;;;;;;;;;;;;8.42;82.50;94966.19;30001;983;1880;-64
2022/04/24 02:04:41;;;;;;;;;;;;;;;8.42;82.79;94968.88;30001;983;1880;-64
2022/04/24 02:05:12;;;;;;;;;;;;;;;8.40;82.79;94961.09;30001;983;1880;-64
2022/04/24 02:05:43;;;;;;;;;;;;;;;8.40;83.01;94969.22;30001;983;1880;-63
2022/04/24 02:06:14;;;;;;;;;;;;;;;8.40;83.01;94968.41;30001;973;1878;-64
2022/04/24 02:06:45;;;;;;;;;;;;;;;8.41;83.07;94970.00;30001;983;1854;-64
2022/04/24 02:07:15;;;;;;;;;;;;;;;8.38;83.21;94965.25;30001;983;1881;-64
2022/04/24 02:07:46;;;;;;;;;;;;;;;8.39;83.01;94970.31;30001;982;1881;-65
2022/04/24 02:08:17;;;;;;;;;;;;;;;8.40;83.00;94968.41;30001;982;1881;-59
2022/04/24 02:08:48;;;;;;;;;;;;;;;8.41;83.11;94975.41;30001;982;1859;-64
2022/04/24 02:09:20;;;;;;;;;;;;;;;8.40;83.09;94971.13;30001;982;1876;-58
2022/04/24 02:09:51;;;;;;;;;;;;;;;8.40;83.21;94966.50;30001;982;1881;-59
2022/04/24 02:10:21;;;;;;;;;;;;;;;8.42;82.89;94966.19;30001;983;1880;-63
2022/04/24 02:10:52;;;;;;;;;;;;;;;8.44;82.66;94957.75;30001;983;1880;-58
2022/04/24 02:11:23;;;;;;;;;;;;;;;8.43;83.06;94962.37;30001;983;1880;-59
2022/04/24 02:11:54;;;;;;;;;;;;;;;8.43;82.73;94962.37;30001;983;1880;-64
2022/04/24 02:12:25;;;;;;;;;;;;;;;8.43;82.70;94954.25;30001;983;1858;-59
2022/04/24 02:12:59;;;;;;;;;;;;;;;8.43;82.65;94964.28;30001;983;1876;-63
2022/04/24 02:13:30;;;;;;;;;;;;;;;8.43;82.69;94961.56;30001;983;1880;-59
2022/04/24 02:14:02;;;;;;;;;;;;;;;8.43;82.65;94962.37;30001;983;1880;-60
2022/04/24 02:14:37;;;;;;;;;;;;;;;8.44;82.64;94955.03;30001;986;1881;-58
2022/04/24 02:15:09;;;;;;;;;;;;;;;8.43;82.41;94956.97;30001;982;1881;-59
2022/04/24 02:15:40;;;;;;;;;;;;;;;8.43;82.51;94951.56;30001;982;1881;-63
2022/04/24 02:16:11;;;;;;;;;;;;;;;8.43;82.60;94962.37;30001;982;1881;-58
2022/04/24 02:16:42;;;;;;;;;;;;;;;8.43;82.58;94962.37;30001;982;1881;-59
2022/04/24 02:17:13;;;;;;;;;;;;;;;8.44;82.45;94974.75;30001;982;1859;-64
2022/04/24 02:17:43;;;;;;;;;;;;;;;8.44;82.38;94963.94;30001;983;1876;-64
2022/04/24 02:18:14;;;;;;;;;;;;;;;8.45;82.90;94968.25;30001;983;1745;-63
2022/04/24 02:18:45;;;;;;;;;;;;;;;8.44;82.90;94963.94;30001;983;1854;-58
2022/04/24 02:19:16;;;;;;;;;;;;;;;8.44;82.72;94969.34;30001;983;1880;-59
2022/04/24 02:19:46;;;;;;;;;;;;;;;8.44;82.68;94974.75;30001;983;1880;-63
2022/04/24 02:20:17;;;;;;;;;;;;;;;8.44;82.85;94969.34;30001;983;1880;-64
2022/04/24 02:20:48;;;;;;;;;;;;;;;8.45;83.30;94976.34;30001;983;1880;-64
2022/04/24 02:21:19;;;;;;;;;;;;;;;8.44;83.38;94974.75;30001;983;1880;-64
2022/04/24 02:21:50;;;;;;;;;;;;;;;8.44;82.99;94980.16;30001;983;1881;-64
2022/04/24 02:22:21;;;;;;;;;;;;;;;8.44;83.24;94977.47;30001;983;1859;-59
2022/04/24 02:22:52;;;;;;;;;;;;;;;8.45;83.32;94968.25;30001;982;1876;-59
2022/04/24 02:23:23;;;;;;;;;;;;;;;8.45;83.41;94970.94;30001;982;1881;-59
2022/04/24 02:23:55;;;;;;;;;;;;;;;8.45;83.37;94973.62;30001;982;1881;-64
2022/04/24 02:24:25;;;;;;;;;;;;;;;8.44;83.38;94969.34;30001;982;1859;-64
2022/04/24 02:24:59;;;;;;;;;;;;;;;8.45;83.23;94970.16;30001;982;1877;-64
2022/04/24 02:25:30;;;;;;;;;;;;;;;8.45;83.75;94973.62;30001;983;1880;-63
2022/04/24 02:26:01;;;;;;;;;;;;;;;8.44;84.19;94976.66;30001;983;1880;-64
2022/04/24 02:26:35;;;;;;;;;;;;;;;8.40;84.61;94969.22;30001;983;1880;-64
2022/04/24 02:27:06;;;;;;;;;;;;;;;8.39;84.74;94978.44;30001;983;1880;-63
2022/04/24 02:27:37;;;;;;;;;;;;;;;8.37;84.52;94975.25;30001;983;1880;-59
2022/04/24 02:28:08;;;;;;;;;;;;;;;8.36;84.38;94979.09;30001;983;1880;-59
2022/04/24 02:28:41;;;;;;;;;;;;;;;8.36;84.43;94975.59;30001;983;1859;-64
2022/04/24 02:29:12;;;;;;;;;;;;;;;8.36;84.13;94972.88;30001;983;1876;-64
2022/04/24 02:29:43;;;;;;;;;;;;;;;8.36;84.14;94979.09;30001;983;1881;-59
2022/04/24 02:30:15;;;;;;;;;;;;;;;8.38;84.36;94978.75;30001;982;1881;-58
2022/04/24 02:30:45;;;;;;;;;;;;;;;8.37;84.88;94974.47;30001;982;1881;-59
2022/04/24 02:31:16;;;;;;;;;;;;;;;8.36;84.55;94978.28;30001;982;1881;-58
2022/04/24 02:31:47;;;;;;;;;;;;;;;8.36;84.67;94979.09;30001;982;1881;-58
2022/04/24 02:32:19;;;;;;;;;;;;;;;8.36;84.50;94972.88;30001;982;1823;-64
2022/04/24 02:32:49;;;;;;;;;;;;;;;8.36;84.47;94981.00;30001;983;1876;-59
2022/04/24 02:33:20;;;;;;;;;;;;;;;8.36;84.63;94975.59;30001;983;1880;-59
2022/04/24 02:33:51;;;;;;;;;;;;;;;8.36;84.63;94978.28;30001;983;1880;-64
2022/04/24 02:34:22;;;;;;;;;;;;;;;8.36;84.35;94978.28;30001;983;1880;-63
2022/04/24 02:34:53;;;;;;;;;;;;;;;8.37;84.23;94985.28;30001;983;1858;-60
2022/04/24 02:35:24;;;;;;;;;;;;;;;8.37;84.28;94986.06;30001;983;1876;-64
2022/04/24 02:35:55;;;;;;;;;;;;;;;8.39;84.36;95000.06;30001;983;1880;-63
2022/04/24 02:36:26;;;;;;;;;;;;;;;8.40;84.89;94990.03;30001;983;1881;-64
2022/04/24 02:36:57;;;;;;;;;;;;;;;8.40;85.33;94998.94;30001;982;1881;-63
2022/04/24 02:37:27;;;;;;;;;;;;;;;8.41;85.58;95002.44;30001;982;1881;-64
2022/04/24 02:37:58;;;;;;;;;;;;;;;8.40;85.87;95006.25;30001;982;1881;-59
2022/04/24 02:38:29;;;;;;;;;;;;;;;8.38;85.82;95003.88;30001;982;1881;-58
2022/04/24 02:39:00;;;;;;;;;;;;;;;8.38;85.60;95008.47;30001;982;1881;-60
2022/04/24 02:39:31;;;;;;;;;;;;;;;8.38;85.63;95003.88;30001;982;1881;-59
2022/04/24 02:40:02;;;;;;;;;;;;;;;8.39;85.44;95001.97;30001;982;1859;-60
2022/04/24 02:40:34;;;;;;;;;;;;;;;8.38;85.52;95008.47;30001;983;1854;-59
2022/04/24 02:41:06;;;;;;;;;;;;;;;8.38;85.88;95008.47;30001;983;1858;-59
2022/04/24 02:41:36;;;;;;;;;;;;;;;8.37;86.39;95002.28;30001;983;1876;-60
2022/04/24 02:42:08;;;;;;;;;;;;;;;8.37;86.34;95002.28;30001;983;1880;-59
2022/04/24 02:42:39;;;;;;;;;;;;;;;8.36;85.90;95005.31;30001;983;1880;-58
2022/04/24 02:43:10;;;;;;;;;;;;;;;8.36;85.90;95002.59;30001;983;1802;-60
2022/04/24 02:43:41;;;;;;;;;;;;;;;8.35;85.83;95007.22;30001;983;1881;-59
2022/04/24 02:44:11;;;;;;;;;;;;;;;8.35;85.77;95014.53;30001;983;1881;-62
2022/04/24 02:44:44;;;;;;;;;;;;;;;8.35;85.76;95004.53;30001;982;1881;-58
2022/04/24 02:45:15;;;;;;;;;;;;;;;8.35;85.51;95009.13;30001;982;1881;-59
2022/04/24 02:45:46;;;;;;;;;;;;;;;8.36;85.33;95002.59;30001;982;1859;-59
2022/04/24 02:46:17;;;;;;;;;;;;;;;8.34;85.20;94997.53;30001;982;1876;-59
2022/04/24 02:46:48;;;;;;;;;;;;;;;8.34;85.02;95002.13;30001;982;1881;-59
2022/04/24 02:47:19;;;;;;;;;;;;;;;8.36;85.50;94999.91;30001;982;1881;-59
2022/04/24 02:47:50;;;;;;;;;;;;;;;8.35;85.95;94998.31;30001;983;1848;-60
2022/04/24 02:48:22;;;;;;;;;;;;;;;8.32;86.88;94999.75;30001;983;1880;-58
2022/04/24 02:48:53;;;;;;;;;;;;;;;8.31;86.58;95002.78;30001;983;1880;-60
2022/04/24 02:49:23;;;;;;;;;;;;;;;8.31;86.64;94997.38;30001;983;1880;-62
2022/04/24 02:49:55;;;;;;;;;;;;;;;8.30;86.72;94995.78;30001;983;1880;-60
2022/04/24 02:50:26;;;;;;;;;;;;;;;8.28;87.04;94992.63;30001;983;1880;-60
2022/04/24 02:50:57;;;;;;;;;;;;;;;8.26;87.12;94992.16;30001;983;1859;-59